createdAt,value
2022-10-26T00:00:13.000Z,280.09
2022-10-26T00:01:40.000Z,280.09
2022-10-26T00:03:46.000Z,280.02
2022-10-26T00:05:13.000Z,280.09
2022-10-26T00:07:19.000Z,280.09
2022-10-26T00:08:45.000Z,280.02
2022-10-26T00:10:51.000Z,280.02
2022-10-26T00:12:18.000Z,280.02
2022-10-26T00:14:24.000Z,280.09
2022-10-26T00:17:15.000Z,280.15
2022-10-26T00:18:42.000Z,280.09
2022-10-26T00:20:48.000Z,280.09
2022-10-26T00:22:14.000Z,280.09
2022-10-26T00:24:20.000Z,280.09
2022-10-26T00:25:47.000Z,280.09
2022-10-26T00:27:53.000Z,279.96
2022-10-26T00:29:19.000Z,279.96
2022-10-26T00:31:25.000Z,279.96
2022-10-26T00:32:52.000Z,279.96
2022-10-26T00:34:58.000Z,280.02
2022-10-26T00:36:45.000Z,279.96
2022-10-26T00:38:52.000Z,280.02
2022-10-26T00:40:18.000Z,280.02
2022-10-26T00:42:24.000Z,280.02
2022-10-26T00:43:51.000Z,279.96
2022-10-26T00:45:57.000Z,279.96
2022-10-26T00:47:23.000Z,279.96
2022-10-26T00:49:29.000Z,279.9
2022-10-26T00:50:56.000Z,279.96
2022-10-26T00:53:02.000Z,279.96
2022-10-26T00:55:53.000Z,279.96
2022-10-26T00:57:20.000Z,279.9
2022-10-26T00:59:26.000Z,279.9
2022-10-26T01:00:52.000Z,279.9
2022-10-26T01:02:58.000Z,279.9
2022-10-26T01:04:25.000Z,279.9
2022-10-26T01:06:31.000Z,279.9
2022-10-26T01:07:57.000Z,279.96
2022-10-26T01:10:04.000Z,279.96
2022-10-26T01:11:30.000Z,279.96
2022-10-26T01:13:36.000Z,279.96
2022-10-26T01:15:03.000Z,280.02
2022-10-26T01:17:09.000Z,279.96
2022-10-26T01:18:35.000Z,279.96
2022-10-26T01:20:41.000Z,279.96
2022-10-26T01:22:08.000Z,279.96
2022-10-26T01:24:14.000Z,280.02
2022-10-26T01:25:41.000Z,280.02
2022-10-26T01:27:47.000Z,280.09
2022-10-26T01:29:14.000Z,280.09
2022-10-26T01:31:20.000Z,280.09
2022-10-26T01:34:11.000Z,280.09
2022-10-26T01:35:37.000Z,280.09
2022-10-26T01:37:43.000Z,280.09
2022-10-26T01:39:10.000Z,280.09
2022-10-26T01:41:17.000Z,280.09
2022-10-26T01:42:43.000Z,280.15
2022-10-26T01:44:49.000Z,280.15
2022-10-26T01:48:22.000Z,280.09
2022-10-26T01:49:48.000Z,280.09
2022-10-26T01:51:54.000Z,280.09
2022-10-26T01:53:21.000Z,280.09
2022-10-26T01:55:27.000Z,280.09
2022-10-26T01:56:53.000Z,280.02
2022-10-26T01:58:59.000Z,280.09
2022-10-26T02:00:26.000Z,280.09
2022-10-26T02:02:32.000Z,280.02
2022-10-26T02:03:59.000Z,280.02
2022-10-26T02:06:05.000Z,280.09
2022-10-26T02:07:31.000Z,280.09
2022-10-26T02:09:38.000Z,280.09
2022-10-26T02:12:28.000Z,280.09
2022-10-26T02:13:55.000Z,280.02
2022-10-26T02:16:01.000Z,280.09
2022-10-26T02:17:27.000Z,280.09
2022-10-26T02:19:34.000Z,280.09
2022-10-26T02:21:00.000Z,280.09
2022-10-26T02:23:06.000Z,280.09
2022-10-26T02:24:33.000Z,280.09
2022-10-26T02:26:39.000Z,280.15
2022-10-26T02:28:05.000Z,280.15
2022-10-26T02:30:11.000Z,280.15
2022-10-26T02:31:38.000Z,280.21
2022-10-26T02:33:44.000Z,280.15
2022-10-26T02:35:10.000Z,280.21
2022-10-26T02:37:17.000Z,280.15
2022-10-26T02:38:43.000Z,280.15
2022-10-26T02:40:49.000Z,280.21
2022-10-26T02:42:16.000Z,280.21
2022-10-26T02:44:22.000Z,280.21
2022-10-26T02:45:48.000Z,280.27
2022-10-26T02:47:54.000Z,280.27
2022-10-26T02:50:45.000Z,280.27
2022-10-26T02:52:12.000Z,280.27
2022-10-26T02:54:18.000Z,280.34
2022-10-26T02:55:45.000Z,280.34
2022-10-26T02:57:51.000Z,280.34
2022-10-26T02:59:17.000Z,280.34
2022-10-26T03:01:23.000Z,280.34
2022-10-26T03:02:50.000Z,280.4
2022-10-26T03:04:56.000Z,280.4
2022-10-26T03:06:23.000Z,280.4
2022-10-26T03:08:29.000Z,280.4
2022-10-26T03:09:55.000Z,280.4
2022-10-26T03:12:02.000Z,280.4
2022-10-26T03:13:28.000Z,280.4
2022-10-26T03:15:34.000Z,280.46
2022-10-26T03:17:01.000Z,280.46
2022-10-26T03:19:07.000Z,280.46
2022-10-26T03:20:33.000Z,280.46
2022-10-26T03:22:39.000Z,280.46
2022-10-26T03:24:06.000Z,280.46
2022-10-26T03:26:12.000Z,280.52
2022-10-26T03:29:03.000Z,280.52
2022-10-26T03:30:30.000Z,280.52
2022-10-26T03:32:36.000Z,280.52
2022-10-26T03:34:02.000Z,280.52
2022-10-26T03:36:08.000Z,280.52
2022-10-26T03:37:35.000Z,280.46
2022-10-26T03:39:41.000Z,280.52
2022-10-26T03:41:07.000Z,280.52
2022-10-26T03:43:14.000Z,280.52
2022-10-26T03:44:40.000Z,280.59
2022-10-26T03:46:46.000Z,280.59
2022-10-26T03:48:13.000Z,280.59
2022-10-26T03:50:19.000Z,280.59
2022-10-26T03:51:45.000Z,280.52
2022-10-26T03:53:52.000Z,280.59
2022-10-26T03:55:18.000Z,280.59
2022-10-26T03:57:24.000Z,280.65
2022-10-26T03:58:51.000Z,280.65
2022-10-26T04:00:57.000Z,280.59
2022-10-26T04:02:23.000Z,280.65
2022-10-26T04:04:29.000Z,280.59
2022-10-26T04:07:21.000Z,280.59
2022-10-26T04:08:47.000Z,280.59
2022-10-26T04:10:53.000Z,280.59
2022-10-26T04:12:20.000Z,280.59
2022-10-26T04:14:26.000Z,280.59
2022-10-26T04:15:52.000Z,280.59
2022-10-26T04:17:58.000Z,280.59
2022-10-26T04:19:25.000Z,280.59
2022-10-26T04:21:31.000Z,280.59
2022-10-26T04:22:57.000Z,280.59
2022-10-26T04:25:04.000Z,280.59
2022-10-26T04:26:30.000Z,280.52
2022-10-26T04:28:36.000Z,280.59
2022-10-26T04:30:03.000Z,280.59
2022-10-26T04:32:09.000Z,280.65
2022-10-26T04:33:35.000Z,280.65
2022-10-26T04:35:42.000Z,280.65
2022-10-26T04:37:08.000Z,280.65
2022-10-26T04:39:14.000Z,280.65
2022-10-26T04:40:41.000Z,280.71
2022-10-26T04:42:47.000Z,280.65
2022-10-26T04:45:39.000Z,280.59
2022-10-26T04:47:05.000Z,280.65
2022-10-26T04:49:11.000Z,280.71
2022-10-26T04:50:38.000Z,280.71
2022-10-26T04:52:44.000Z,280.71
2022-10-26T04:54:11.000Z,280.71
2022-10-26T04:56:17.000Z,280.77
2022-10-26T04:57:44.000Z,280.77
2022-10-26T04:59:50.000Z,280.77
2022-10-26T05:01:17.000Z,280.77
2022-10-26T05:03:23.000Z,280.77
2022-10-26T05:04:49.000Z,280.84
2022-10-26T05:06:56.000Z,280.84
2022-10-26T05:08:22.000Z,280.84
2022-10-26T05:10:28.000Z,280.84
2022-10-26T05:11:55.000Z,280.9
2022-10-26T05:14:01.000Z,280.84
2022-10-26T05:15:27.000Z,280.84
2022-10-26T05:17:33.000Z,280.9
2022-10-26T05:19:00.000Z,280.9
2022-10-26T05:21:06.000Z,280.9
2022-10-26T05:23:57.000Z,280.9
2022-10-26T05:25:24.000Z,280.9
2022-10-26T05:27:30.000Z,280.9
2022-10-26T05:28:56.000Z,280.9
2022-10-26T05:31:02.000Z,280.9
2022-10-26T05:32:29.000Z,280.9
2022-10-26T05:34:35.000Z,280.9
2022-10-26T05:36:06.000Z,280.96
2022-10-26T05:38:12.000Z,280.96
2022-10-26T05:39:38.000Z,280.96
2022-10-26T05:41:44.000Z,280.96
2022-10-26T05:43:11.000Z,281.02
2022-10-26T05:45:17.000Z,280.96
2022-10-26T05:46:43.000Z,281.02
2022-10-26T05:48:50.000Z,281.02
2022-10-26T05:50:16.000Z,281.02
2022-10-26T05:52:22.000Z,281.02
2022-10-26T05:53:49.000Z,281.02
2022-10-26T05:55:55.000Z,281.09
2022-10-26T05:57:21.000Z,281.09
2022-10-26T05:59:28.000Z,281.02
2022-10-26T06:02:18.000Z,281.09
2022-10-26T06:03:45.000Z,281.15
2022-10-26T06:05:51.000Z,281.09
2022-10-26T06:07:18.000Z,281.09
2022-10-26T06:09:24.000Z,281.09
2022-10-26T06:10:50.000Z,281.09
2022-10-26T06:12:57.000Z,281.09
2022-10-26T06:14:23.000Z,281.09
2022-10-26T06:16:29.000Z,281.15
2022-10-26T06:17:56.000Z,281.15
2022-10-26T06:20:02.000Z,281.15
2022-10-26T06:21:29.000Z,281.09
2022-10-26T06:23:35.000Z,281.15
2022-10-26T06:25:01.000Z,281.15
2022-10-26T06:27:07.000Z,281.21
2022-10-26T06:28:34.000Z,281.21
2022-10-26T06:30:40.000Z,281.15
2022-10-26T06:32:06.000Z,281.21
2022-10-26T06:34:13.000Z,281.21
2022-10-26T06:35:39.000Z,281.21
2022-10-26T06:37:45.000Z,281.21
2022-10-26T06:40:37.000Z,281.27
2022-10-26T06:42:03.000Z,281.21
2022-10-26T06:44:10.000Z,281.27
2022-10-26T06:45:36.000Z,281.34
2022-10-26T06:47:42.000Z,281.34
2022-10-26T06:49:09.000Z,281.34
2022-10-26T06:51:15.000Z,281.34
2022-10-26T06:52:41.000Z,281.4
2022-10-26T06:54:47.000Z,281.34
2022-10-26T06:56:14.000Z,281.34
2022-10-26T06:58:20.000Z,281.4
2022-10-26T06:59:47.000Z,281.4
2022-10-26T07:01:53.000Z,281.4
2022-10-26T07:03:19.000Z,281.4
2022-10-26T07:05:25.000Z,281.46
2022-10-26T07:06:52.000Z,281.4
2022-10-26T07:08:58.000Z,281.46
2022-10-26T07:10:25.000Z,281.46
2022-10-26T07:12:31.000Z,281.46
2022-10-26T07:13:58.000Z,281.52
2022-10-26T07:16:04.000Z,281.46
2022-10-26T07:18:55.000Z,281.52
2022-10-26T07:20:22.000Z,281.59
2022-10-26T07:22:28.000Z,281.59
2022-10-26T07:23:54.000Z,281.59
2022-10-26T07:26:00.000Z,281.59
2022-10-26T07:27:27.000Z,281.59
2022-10-26T07:29:33.000Z,281.59
2022-10-26T07:31:00.000Z,281.59
2022-10-26T07:33:06.000Z,281.65
2022-10-26T07:34:32.000Z,281.65
2022-10-26T07:36:39.000Z,281.65
2022-10-26T07:38:05.000Z,281.71
2022-10-26T07:40:11.000Z,281.71
2022-10-26T07:41:38.000Z,281.71
2022-10-26T07:43:44.000Z,281.71
2022-10-26T07:45:10.000Z,281.77
2022-10-26T07:47:17.000Z,281.77
2022-10-26T07:48:43.000Z,281.77
2022-10-26T07:50:49.000Z,281.77
2022-10-26T07:52:16.000Z,281.84
2022-10-26T07:54:22.000Z,281.84
2022-10-26T07:57:13.000Z,281.9
2022-10-26T07:58:39.000Z,281.9
2022-10-26T08:00:45.000Z,281.9
2022-10-26T08:02:12.000Z,281.96
2022-10-26T08:04:18.000Z,281.96
2022-10-26T08:05:45.000Z,282.02
2022-10-26T08:07:51.000Z,282.02
2022-10-26T08:09:17.000Z,282.02
2022-10-26T08:11:23.000Z,282.09
2022-10-26T08:12:50.000Z,282.09
2022-10-26T08:14:56.000Z,282.09
2022-10-26T08:16:23.000Z,282.15
2022-10-26T08:18:29.000Z,282.15
2022-10-26T08:19:55.000Z,282.15
2022-10-26T08:22:01.000Z,282.21
2022-10-26T08:23:28.000Z,282.21
2022-10-26T08:25:34.000Z,282.27
2022-10-26T08:27:00.000Z,282.34
2022-10-26T08:29:06.000Z,282.4
2022-10-26T08:32:39.000Z,282.46
2022-10-26T08:35:30.000Z,282.46
2022-10-26T08:36:57.000Z,282.46
2022-10-26T08:39:03.000Z,282.46
2022-10-26T08:40:29.000Z,282.52
2022-10-26T08:42:35.000Z,282.52
2022-10-26T08:44:02.000Z,282.52
2022-10-26T08:46:08.000Z,282.59
2022-10-26T08:47:34.000Z,282.59
2022-10-26T08:49:40.000Z,282.65
2022-10-26T08:51:07.000Z,282.65
2022-10-26T08:53:13.000Z,282.71
2022-10-26T08:54:40.000Z,282.71
2022-10-26T08:56:46.000Z,282.77
2022-10-26T08:58:15.000Z,282.84
2022-10-26T09:00:21.000Z,282.96
2022-10-26T09:01:48.000Z,282.96
2022-10-26T09:03:54.000Z,283.09
2022-10-26T09:05:21.000Z,283.09
2022-10-26T09:07:27.000Z,283.09
2022-10-26T09:08:53.000Z,283.15
2022-10-26T09:10:59.000Z,283.15
2022-10-26T09:13:50.000Z,283.21
2022-10-26T09:15:23.000Z,283.21
2022-10-26T09:17:29.000Z,283.34
2022-10-26T09:18:55.000Z,283.4
2022-10-26T09:21:06.000Z,283.46
2022-10-26T09:22:33.000Z,283.52
2022-10-26T09:24:39.000Z,283.59
2022-10-26T09:26:05.000Z,283.65
2022-10-26T09:28:12.000Z,283.71
2022-10-26T09:29:38.000Z,283.84
2022-10-26T09:31:44.000Z,283.84
2022-10-26T09:33:11.000Z,283.9
2022-10-26T09:35:17.000Z,283.9
2022-10-26T09:36:43.000Z,283.96
2022-10-26T09:38:50.000Z,284.09
2022-10-26T09:40:16.000Z,284.15
2022-10-26T09:42:23.000Z,284.27
2022-10-26T09:43:49.000Z,284.34
2022-10-26T09:45:55.000Z,284.52
2022-10-26T09:47:22.000Z,284.52
2022-10-26T09:49:28.000Z,284.71
2022-10-26T09:52:20.000Z,284.77
2022-10-26T09:53:46.000Z,284.84
2022-10-26T09:55:52.000Z,284.96
2022-10-26T09:57:19.000Z,284.96
2022-10-26T09:59:25.000Z,285.02
2022-10-26T10:00:51.000Z,284.96
2022-10-26T10:02:58.000Z,285.15
2022-10-26T10:04:24.000Z,285.15
2022-10-26T10:06:30.000Z,285.21
2022-10-26T10:07:57.000Z,285.34
2022-10-26T10:10:03.000Z,285.4
2022-10-26T10:11:29.000Z,285.52
2022-10-26T10:13:36.000Z,285.52
2022-10-26T10:15:02.000Z,285.59
2022-10-26T10:17:08.000Z,285.77
2022-10-26T10:18:35.000Z,285.84
2022-10-26T10:20:41.000Z,285.77
2022-10-26T10:22:08.000Z,285.77
2022-10-26T10:24:14.000Z,285.9
2022-10-26T10:25:40.000Z,286.21
2022-10-26T10:27:46.000Z,286.34
2022-10-26T10:30:38.000Z,286.46
2022-10-26T10:32:05.000Z,286.65
2022-10-26T10:34:11.000Z,286.84
2022-10-26T10:35:37.000Z,286.9
2022-10-26T10:37:43.000Z,287.02
2022-10-26T10:39:10.000Z,287.21
2022-10-26T10:41:16.000Z,287.02
2022-10-26T10:42:42.000Z,287.09
2022-10-26T10:44:48.000Z,287.21
2022-10-26T10:46:15.000Z,287.27
2022-10-26T10:48:21.000Z,287.27
2022-10-26T10:49:48.000Z,287.15
2022-10-26T10:51:54.000Z,287.21
2022-10-26T10:53:20.000Z,287.21
2022-10-26T10:55:26.000Z,287.27
2022-10-26T10:56:53.000Z,287.34
2022-10-26T10:58:59.000Z,287.27
2022-10-26T11:00:25.000Z,287.4
2022-10-26T11:02:32.000Z,287.34
2022-10-26T11:03:58.000Z,287.65
2022-10-26T11:06:04.000Z,287.9
2022-10-26T11:08:55.000Z,288.09
2022-10-26T11:10:22.000Z,288.27
2022-10-26T11:12:28.000Z,288.4
2022-10-26T11:13:54.000Z,288.34
2022-10-26T11:16:00.000Z,288.46
2022-10-26T11:17:27.000Z,288.65
2022-10-26T11:19:33.000Z,288.71
2022-10-26T11:20:59.000Z,288.77
2022-10-26T11:23:06.000Z,289.09
2022-10-26T11:24:32.000Z,289.15
2022-10-26T11:26:38.000Z,289.09
2022-10-26T11:28:10.000Z,289.09
2022-10-26T11:30:16.000Z,289.46
2022-10-26T11:31:43.000Z,289.71
2022-10-26T11:33:49.000Z,289.59
2022-10-26T11:35:15.000Z,289.52
2022-10-26T11:37:21.000Z,289.59
2022-10-26T11:38:48.000Z,289.77
2022-10-26T11:41:01.000Z,289.84
2022-10-26T11:42:27.000Z,289.9
2022-10-26T11:44:33.000Z,289.77
2022-10-26T11:47:24.000Z,289.59
2022-10-26T11:48:51.000Z,289.59
2022-10-26T11:50:57.000Z,289.46
2022-10-26T11:52:24.000Z,289.4
2022-10-26T11:54:30.000Z,289.27
2022-10-26T11:55:56.000Z,289.27
2022-10-26T11:58:02.000Z,289.21
2022-10-26T11:59:29.000Z,289.21
2022-10-26T12:01:37.000Z,289.21
2022-10-26T12:03:04.000Z,289.15
2022-10-26T12:05:10.000Z,289.09
2022-10-26T12:06:37.000Z,289.09
2022-10-26T12:08:43.000Z,289.02
2022-10-26T12:10:09.000Z,289.02
2022-10-26T12:12:15.000Z,288.9
2022-10-26T12:13:42.000Z,288.9
2022-10-26T12:15:48.000Z,288.96
2022-10-26T12:17:28.000Z,288.96
2022-10-26T12:19:34.000Z,289.02
2022-10-26T12:21:00.000Z,288.96
2022-10-26T12:23:06.000Z,289.02
2022-10-26T12:25:58.000Z,289.09
2022-10-26T12:27:24.000Z,289.09
2022-10-26T12:29:30.000Z,289.09
2022-10-26T12:30:57.000Z,289.15
2022-10-26T12:33:03.000Z,289.21
2022-10-26T12:34:29.000Z,289.21
2022-10-26T12:36:35.000Z,289.21
2022-10-26T12:38:02.000Z,289.34
2022-10-26T12:40:08.000Z,289.4
2022-10-26T12:41:34.000Z,289.4
2022-10-26T12:45:07.000Z,289.59
2022-10-26T12:47:13.000Z,290.09
2022-10-26T12:48:40.000Z,289.96
2022-10-26T12:50:46.000Z,290.09
2022-10-26T12:52:12.000Z,290.27
2022-10-26T12:54:18.000Z,290.21
2022-10-26T12:55:45.000Z,290.27
2022-10-26T12:57:51.000Z,290.4
2022-10-26T12:59:17.000Z,290.4
2022-10-26T13:01:24.000Z,290.59
2022-10-26T13:04:15.000Z,290.65
2022-10-26T13:05:41.000Z,290.65
2022-10-26T13:07:47.000Z,290.65
2022-10-26T13:09:14.000Z,290.59
2022-10-26T13:11:24.000Z,290.52
2022-10-26T13:12:51.000Z,290.71
2022-10-26T13:14:57.000Z,290.65
2022-10-26T13:16:23.000Z,290.65
2022-10-26T13:18:29.000Z,290.59
2022-10-26T13:19:56.000Z,290.65
2022-10-26T13:22:02.000Z,290.65
2022-10-26T13:23:29.000Z,290.77
2022-10-26T13:25:35.000Z,290.71
2022-10-26T13:27:01.000Z,290.77
2022-10-26T13:29:07.000Z,290.52
2022-10-26T13:30:34.000Z,290.46
2022-10-26T13:32:40.000Z,290.4
2022-10-26T13:34:06.000Z,290.4
2022-10-26T13:36:13.000Z,290.34
2022-10-26T13:37:39.000Z,290.34
2022-10-26T13:39:51.000Z,290.27
2022-10-26T13:42:42.000Z,290.21
2022-10-26T13:44:09.000Z,290.27
2022-10-26T13:46:20.000Z,290.34
2022-10-26T13:47:47.000Z,290.4
2022-10-26T13:49:53.000Z,290.21
2022-10-26T13:51:20.000Z,290.21
2022-10-26T13:53:26.000Z,290.15
2022-10-26T13:54:53.000Z,290.15
2022-10-26T13:56:59.000Z,290.09
2022-10-26T13:58:25.000Z,290.09
2022-10-26T14:00:31.000Z,290.02
2022-10-26T14:01:58.000Z,290.02
2022-10-26T14:04:04.000Z,289.96
2022-10-26T14:05:31.000Z,289.96
2022-10-26T14:07:37.000Z,289.9
2022-10-26T14:09:03.000Z,289.9
2022-10-26T14:11:10.000Z,289.9
2022-10-26T14:12:36.000Z,289.9
2022-10-26T14:14:42.000Z,289.9
2022-10-26T14:16:09.000Z,289.96
2022-10-26T14:18:21.000Z,289.9
2022-10-26T14:21:12.000Z,289.9
2022-10-26T14:22:39.000Z,289.9
2022-10-26T14:24:45.000Z,289.9
2022-10-26T14:26:12.000Z,289.9
2022-10-26T14:28:22.000Z,289.9
2022-10-26T14:29:48.000Z,289.96
2022-10-26T14:32:25.000Z,289.9
2022-10-26T14:33:51.000Z,289.96
2022-10-26T14:35:58.000Z,290.02
2022-10-26T14:37:24.000Z,290.02
2022-10-26T14:39:30.000Z,290.02
2022-10-26T14:40:57.000Z,290.02
2022-10-26T14:43:03.000Z,289.96
2022-10-26T14:44:29.000Z,289.96
2022-10-26T14:46:35.000Z,289.9
2022-10-26T14:48:02.000Z,289.9
2022-10-26T14:50:08.000Z,289.9
2022-10-26T14:51:34.000Z,289.96
2022-10-26T14:53:40.000Z,289.9
2022-10-26T14:55:07.000Z,289.9
2022-10-26T14:57:13.000Z,289.9
2022-10-26T15:00:04.000Z,289.84
2022-10-26T15:01:30.000Z,289.77
2022-10-26T15:03:40.000Z,289.77
2022-10-26T15:05:07.000Z,289.71
2022-10-26T15:07:13.000Z,289.65
2022-10-26T15:08:40.000Z,289.65
2022-10-26T15:11:00.000Z,289.59
2022-10-26T15:12:27.000Z,289.59
2022-10-26T15:14:33.000Z,289.52
2022-10-26T15:15:59.000Z,289.46
2022-10-26T15:18:06.000Z,289.46
2022-10-26T15:19:32.000Z,289.4
2022-10-26T15:21:38.000Z,289.34
2022-10-26T15:23:05.000Z,289.27
2022-10-26T15:25:11.000Z,289.27
2022-10-26T15:26:37.000Z,289.21
2022-10-26T15:28:43.000Z,289.15
2022-10-26T15:30:10.000Z,289.09
2022-10-26T15:32:16.000Z,289.09
2022-10-26T15:33:43.000Z,289.02
2022-10-26T15:35:49.000Z,288.96
2022-10-26T15:38:40.000Z,288.96
2022-10-26T15:40:06.000Z,288.9
2022-10-26T15:42:13.000Z,288.77
2022-10-26T15:43:39.000Z,288.84
2022-10-26T15:45:45.000Z,288.77
2022-10-26T15:47:12.000Z,288.77
2022-10-26T15:49:18.000Z,288.71
2022-10-26T15:50:44.000Z,288.71
2022-10-26T15:52:51.000Z,288.65
2022-10-26T15:54:18.000Z,288.65
2022-10-26T15:56:24.000Z,288.59
2022-10-26T15:57:50.000Z,288.59
2022-10-26T15:59:57.000Z,288.59
2022-10-26T16:01:23.000Z,288.52
2022-10-26T16:03:30.000Z,288.52
2022-10-26T16:04:56.000Z,288.46
2022-10-26T16:07:03.000Z,288.46
2022-10-26T16:08:29.000Z,288.46
2022-10-26T16:10:35.000Z,288.4
2022-10-26T16:12:02.000Z,288.34
2022-10-26T16:14:08.000Z,288.34
2022-10-26T16:16:59.000Z,288.27
2022-10-26T16:18:26.000Z,288.21
2022-10-26T16:20:32.000Z,288.21
2022-10-26T16:21:58.000Z,288.21
2022-10-26T16:24:05.000Z,288.15
2022-10-26T16:25:31.000Z,288.15
2022-10-26T16:27:37.000Z,288.15
2022-10-26T16:29:04.000Z,288.09
2022-10-26T16:31:10.000Z,288.09
2022-10-26T16:32:36.000Z,288.09
2022-10-26T16:34:42.000Z,288.09
2022-10-26T16:36:09.000Z,288.09
2022-10-26T16:38:15.000Z,288.02
2022-10-26T16:39:42.000Z,288.02
2022-10-26T16:41:48.000Z,287.96
2022-10-26T16:43:14.000Z,287.9
2022-10-26T16:45:20.000Z,287.96
2022-10-26T16:46:47.000Z,287.9
2022-10-26T16:48:53.000Z,287.84
2022-10-26T16:50:19.000Z,287.84
2022-10-26T16:52:25.000Z,287.71
2022-10-26T16:55:17.000Z,287.52
2022-10-26T16:56:43.000Z,287.52
2022-10-26T16:58:49.000Z,287.46
2022-10-26T17:00:16.000Z,287.4
2022-10-26T17:02:22.000Z,287.34
2022-10-26T17:03:49.000Z,287.4
2022-10-26T17:05:55.000Z,287.34
2022-10-26T17:07:21.000Z,287.27
2022-10-26T17:09:27.000Z,287.27
2022-10-26T17:10:54.000Z,287.21
2022-10-26T17:13:00.000Z,287.09
2022-10-26T17:14:27.000Z,286.9
2022-10-26T17:16:33.000Z,286.84
2022-10-26T17:17:59.000Z,286.65
2022-10-26T17:20:05.000Z,286.65
2022-10-26T17:21:32.000Z,286.59
2022-10-26T17:23:38.000Z,286.59
2022-10-26T17:25:04.000Z,286.46
2022-10-26T17:27:10.000Z,286.4
2022-10-26T17:28:37.000Z,286.4
2022-10-26T17:30:43.000Z,286.4
2022-10-26T17:33:34.000Z,286.27
2022-10-26T17:35:00.000Z,286.27
2022-10-26T17:37:07.000Z,286.21
2022-10-26T17:38:33.000Z,286.15
2022-10-26T17:40:39.000Z,286.21
2022-10-26T17:42:06.000Z,286.15
2022-10-26T17:44:12.000Z,286.09
2022-10-26T17:45:38.000Z,286.09
2022-10-26T17:47:45.000Z,286.02
2022-10-26T17:49:11.000Z,285.96
2022-10-26T17:51:17.000Z,286.02
2022-10-26T17:52:44.000Z,286.02
2022-10-26T17:54:50.000Z,285.84
2022-10-26T17:56:16.000Z,285.77
2022-10-26T17:58:23.000Z,285.77
2022-10-26T17:59:49.000Z,285.71
2022-10-26T18:01:55.000Z,285.71
2022-10-26T18:03:22.000Z,285.71
2022-10-26T18:05:28.000Z,285.65
2022-10-26T18:06:54.000Z,285.59
2022-10-26T18:09:00.000Z,285.59
2022-10-26T18:11:52.000Z,285.59
2022-10-26T18:13:20.000Z,285.59
2022-10-26T18:15:26.000Z,285.4
2022-10-26T18:16:53.000Z,285.34
2022-10-26T18:18:59.000Z,285.34
2022-10-26T18:20:26.000Z,285.27
2022-10-26T18:22:32.000Z,285.15
2022-10-26T18:23:58.000Z,285.15
2022-10-26T18:26:04.000Z,285.09
2022-10-26T18:27:37.000Z,285.15
2022-10-26T18:29:43.000Z,285.02
2022-10-26T18:31:10.000Z,284.96
2022-10-26T18:33:16.000Z,284.96
2022-10-26T18:34:43.000Z,284.9
2022-10-26T18:36:49.000Z,284.84
2022-10-26T18:38:15.000Z,284.9
2022-10-26T18:40:21.000Z,284.96
2022-10-26T18:41:48.000Z,284.9
2022-10-26T18:43:54.000Z,284.9
2022-10-26T18:45:20.000Z,284.77
2022-10-26T18:47:26.000Z,284.71
2022-10-26T18:50:17.000Z,284.71
2022-10-26T18:51:44.000Z,284.71
2022-10-26T18:53:50.000Z,284.65
2022-10-26T18:55:17.000Z,284.65
2022-10-26T18:57:23.000Z,284.59
2022-10-26T18:58:49.000Z,284.52
2022-10-26T19:00:55.000Z,284.52
2022-10-26T19:02:22.000Z,284.59
2022-10-26T19:04:28.000Z,284.59
2022-10-26T19:05:54.000Z,284.65
2022-10-26T19:08:01.000Z,284.59
2022-10-26T19:09:27.000Z,284.52
2022-10-26T19:11:33.000Z,284.59
2022-10-26T19:13:00.000Z,284.52
2022-10-26T19:15:06.000Z,284.52
2022-10-26T19:16:33.000Z,284.46
2022-10-26T19:20:17.000Z,284.52
2022-10-26T19:22:23.000Z,284.46
2022-10-26T19:23:50.000Z,284.4
2022-10-26T19:25:56.000Z,284.27
2022-10-26T19:28:47.000Z,284.34
2022-10-26T19:30:14.000Z,284.34
2022-10-26T19:32:20.000Z,284.27
2022-10-26T19:33:46.000Z,284.34
2022-10-26T19:35:52.000Z,284.27
2022-10-26T19:37:19.000Z,284.27
2022-10-26T19:39:30.000Z,284.34
2022-10-26T19:40:56.000Z,284.27
2022-10-26T19:43:02.000Z,284.27
2022-10-26T19:44:29.000Z,284.27
2022-10-26T19:46:35.000Z,284.21
2022-10-26T19:48:01.000Z,284.15
2022-10-26T19:50:07.000Z,284.21
2022-10-26T19:51:34.000Z,284.21
2022-10-26T19:53:40.000Z,284.15
2022-10-26T19:55:06.000Z,284.15
2022-10-26T19:57:12.000Z,284.15
2022-10-26T19:58:39.000Z,284.15
2022-10-26T20:00:45.000Z,284.02
2022-10-26T20:02:12.000Z,283.96
2022-10-26T20:04:18.000Z,283.84
2022-10-26T20:07:09.000Z,283.84
2022-10-26T20:08:35.000Z,283.9
2022-10-26T20:10:41.000Z,283.84
2022-10-26T20:12:08.000Z,283.84
2022-10-26T20:14:14.000Z,283.9
2022-10-26T20:15:41.000Z,284.02
2022-10-26T20:17:47.000Z,283.96
2022-10-26T20:19:13.000Z,283.96
2022-10-26T20:21:19.000Z,284.02
2022-10-26T20:22:46.000Z,283.9
2022-10-26T20:24:52.000Z,283.9
2022-10-26T20:26:19.000Z,283.9
2022-10-26T20:28:29.000Z,283.84
2022-10-26T20:29:55.000Z,283.9
2022-10-26T20:32:01.000Z,283.9
2022-10-26T20:33:28.000Z,283.84
2022-10-26T20:35:34.000Z,283.84
2022-10-26T20:37:00.000Z,283.77
2022-10-26T20:39:07.000Z,283.84
2022-10-26T20:40:33.000Z,283.84
2022-10-26T20:42:39.000Z,283.77
2022-10-26T20:45:30.000Z,283.71
2022-10-26T20:46:57.000Z,283.71
2022-10-26T20:49:03.000Z,283.65
2022-10-26T20:50:29.000Z,283.65
2022-10-26T20:52:36.000Z,283.65
2022-10-26T20:54:02.000Z,283.59
2022-10-26T20:56:08.000Z,283.65
2022-10-26T20:57:35.000Z,283.59
2022-10-26T20:59:41.000Z,283.52
2022-10-26T21:01:07.000Z,283.52
2022-10-26T21:03:13.000Z,283.46
2022-10-26T21:04:40.000Z,283.46
2022-10-26T21:06:46.000Z,283.4
2022-10-26T21:08:13.000Z,283.46
2022-10-26T21:10:19.000Z,283.46
2022-10-26T21:11:45.000Z,283.46
2022-10-26T21:13:51.000Z,283.46
2022-10-26T21:15:18.000Z,283.46
2022-10-26T21:17:24.000Z,283.34
2022-10-26T21:18:51.000Z,283.34
2022-10-26T21:20:57.000Z,283.34
2022-10-26T21:23:48.000Z,283.4
2022-10-26T21:25:15.000Z,283.52
2022-10-26T21:27:21.000Z,283.52
2022-10-26T21:28:47.000Z,283.52
2022-10-26T21:30:53.000Z,283.46
2022-10-26T21:32:20.000Z,283.46
2022-10-26T21:34:26.000Z,283.4
2022-10-26T21:35:52.000Z,283.4
2022-10-26T21:37:59.000Z,283.27
2022-10-26T21:39:25.000Z,283.27
2022-10-26T21:41:31.000Z,283.21
2022-10-26T21:42:58.000Z,283.15
2022-10-26T21:45:04.000Z,283.09
2022-10-26T21:46:30.000Z,283.02
2022-10-26T21:48:36.000Z,283.02
2022-10-26T21:50:03.000Z,283.09
2022-10-26T21:52:09.000Z,283.09
2022-10-26T21:53:35.000Z,283.02
2022-10-26T21:55:41.000Z,283.09
2022-10-26T21:57:08.000Z,283.15
2022-10-26T21:59:14.000Z,283.02
2022-10-26T22:02:05.000Z,283.09
2022-10-26T22:03:32.000Z,283.15
2022-10-26T22:05:38.000Z,283.21
2022-10-26T22:07:10.000Z,283.15
2022-10-26T22:09:16.000Z,283.34
2022-10-26T22:10:43.000Z,283.15
2022-10-26T22:12:49.000Z,283.09
2022-10-26T22:14:15.000Z,283.21
2022-10-26T22:16:21.000Z,283.27
2022-10-26T22:17:48.000Z,283.21
2022-10-26T22:19:54.000Z,283.15
2022-10-26T22:21:21.000Z,283.15
2022-10-26T22:23:27.000Z,283.09
2022-10-26T22:24:53.000Z,282.96
2022-10-26T22:26:59.000Z,282.9
2022-10-26T22:28:26.000Z,283.02
2022-10-26T22:30:36.000Z,283.02
2022-10-26T22:32:03.000Z,282.96
2022-10-26T22:34:09.000Z,282.96
2022-10-26T22:35:36.000Z,282.96
2022-10-26T22:37:42.000Z,282.96
2022-10-26T22:40:33.000Z,282.9
2022-10-26T22:42:00.000Z,282.9
2022-10-26T22:44:06.000Z,282.84
2022-10-26T22:45:32.000Z,282.84
2022-10-26T22:47:39.000Z,282.77
2022-10-26T22:49:05.000Z,282.77
2022-10-26T22:51:11.000Z,282.84
2022-10-26T22:52:38.000Z,282.77
2022-10-26T22:54:44.000Z,282.77
2022-10-26T22:56:10.000Z,282.84
2022-10-26T22:58:17.000Z,282.77
2022-10-26T22:59:43.000Z,282.77